sensor_id;sensor_type;location;lat;lon;timestamp;pressure;altitude;pressure_sealevel;temperature;humidity
47636;BME280;33364;50.766;15.338;2023-01-25T00:02:07;96568.16;;;-2.91;73.27
47636;BME280;33364;50.766;15.338;2023-01-25T00:04:33;96567.41;;;-2.82;74.07
47636;BME280;33364;50.766;15.338;2023-01-25T00:06:58;96556.28;;;-2.72;73.77
47636;BME280;33364;50.766;15.338;2023-01-25T00:09:25;96569.44;;;-2.85;73.12
47636;BME280;33364;50.766;15.338;2023-01-25T00:11:51;96560.69;;;-2.84;73.02
47636;BME280;33364;50.766;15.338;2023-01-25T00:14:17;96559.72;;;-2.83;73.20
47636;BME280;33364;50.766;15.338;2023-01-25T00:16:43;96551.91;;;-2.72;72.22
47636;BME280;33364;50.766;15.338;2023-01-25T00:19:10;96554.94;;;-2.55;72.54
47636;BME280;33364;50.766;15.338;2023-01-25T00:21:36;96552.13;;;-2.64;70.50
47636;BME280;33364;50.766;15.338;2023-01-25T00:24:03;96549.78;;;-2.78;70.94
47636;BME280;33364;50.766;15.338;2023-01-25T00:26:32;96555.72;;;-2.76;71.67
47636;BME280;33364;50.766;15.338;2023-01-25T00:28:59;96549.91;;;-2.80;71.43
47636;BME280;33364;50.766;15.338;2023-01-25T00:37:10;96551.13;;;-3.06;70.81
47636;BME280;33364;50.766;15.338;2023-01-25T00:39:37;96557.78;;;-3.25;70.76
47636;BME280;33364;50.766;15.338;2023-01-25T00:42:04;96549.28;;;-3.38;71.00
47636;BME280;33364;50.766;15.338;2023-01-25T00:44:30;96547.84;;;-3.42;71.51
47636;BME280;33364;50.766;15.338;2023-01-25T00:46:55;96541.94;;;-3.33;72.09
47636;BME280;33364;50.766;15.338;2023-01-25T00:49:24;96543.34;;;-3.18;71.42
47636;BME280;33364;50.766;15.338;2023-01-25T00:51:51;96543.56;;;-3.09;71.32
47636;BME280;33364;50.766;15.338;2023-01-25T00:54:18;96537.06;;;-3.04;70.57
47636;BME280;33364;50.766;15.338;2023-01-25T00:56:44;96537.56;;;-3.10;69.18
47636;BME280;33364;50.766;15.338;2023-01-25T00:59:11;96534.03;;;-3.43;67.83
47636;BME280;33364;50.766;15.338;2023-01-25T01:01:39;96539.47;;;-3.57;71.90
47636;BME280;33364;50.766;15.338;2023-01-25T01:04:05;96528.47;;;-3.49;72.26
47636;BME280;33364;50.766;15.338;2023-01-25T01:06:31;96530.84;;;-3.46;70.36
47636;BME280;33364;50.766;15.338;2023-01-25T01:08:57;96531.19;;;-3.62;70.43
47636;BME280;33364;50.766;15.338;2023-01-25T01:11:22;96528.34;;;-3.71;69.48
47636;BME280;33364;50.766;15.338;2023-01-25T01:13:48;96517.97;;;-3.71;71.74
47636;BME280;33364;50.766;15.338;2023-01-25T01:16:14;96528.00;;;-3.77;68.63
47636;BME280;33364;50.766;15.338;2023-01-25T01:18:42;96519.47;;;-3.79;69.84
47636;BME280;33364;50.766;15.338;2023-01-25T01:21:10;96518.41;;;-3.77;70.47
47636;BME280;33364;50.766;15.338;2023-01-25T01:23:36;96509.19;;;-3.81;69.22
47636;BME280;33364;50.766;15.338;2023-01-25T01:26:05;96520.19;;;-3.89;70.19
47636;BME280;33364;50.766;15.338;2023-01-25T01:28:32;96511.41;;;-3.99;71.41
47636;BME280;33364;50.766;15.338;2023-01-25T01:31:05;96517.81;;;-3.92;69.92
47636;BME280;33364;50.766;15.338;2023-01-25T01:33:32;96524.91;;;-3.82;70.10
47636;BME280;33364;50.766;15.338;2023-01-25T01:35:57;96514.28;;;-3.91;67.74
47636;BME280;33364;50.766;15.338;2023-01-25T01:38:24;96517.66;;;-4.13;70.34
47636;BME280;33364;50.766;15.338;2023-01-25T01:40:50;96511.91;;;-4.05;70.50
47636;BME280;33364;50.766;15.338;2023-01-25T01:43:23;96509.38;;;-4.18;68.17
47636;BME280;33364;50.766;15.338;2023-01-25T01:45:57;96503.56;;;-4.33;68.81
47636;BME280;33364;50.766;15.338;2023-01-25T01:50:56;96498.41;;;-4.21;69.94
47636;BME280;33364;50.766;15.338;2023-01-25T01:53:24;96501.59;;;-4.18;70.64
47636;BME280;33364;50.766;15.338;2023-01-25T01:55:56;96504.78;;;-4.14;70.04
47636;BME280;33364;50.766;15.338;2023-01-25T01:58:25;96496.00;;;-4.36;69.48
47636;BME280;33364;50.766;15.338;2023-01-25T02:00:51;96502.59;;;-4.32;70.29
47636;BME280;33364;50.766;15.338;2023-01-25T02:03:18;96501.22;;;-4.60;68.97
47636;BME280;33364;50.766;15.338;2023-01-25T02:05:57;96504.94;;;-4.75;71.35
47636;BME280;33364;50.766;15.338;2023-01-25T02:08:25;96499.59;;;-4.85;71.08
47636;BME280;33364;50.766;15.338;2023-01-25T02:10:51;96503.06;;;-4.73;72.82
47636;BME280;33364;50.766;15.338;2023-01-25T02:13:18;96499.56;;;-4.61;72.42
47636;BME280;33364;50.766;15.338;2023-01-25T02:15:46;96499.16;;;-4.44;73.49
47636;BME280;33364;50.766;15.338;2023-01-25T02:18:16;96492.59;;;-4.36;71.46
47636;BME280;33364;50.766;15.338;2023-01-25T02:20:44;96491.78;;;-4.26;72.47
47636;BME280;33364;50.766;15.338;2023-01-25T02:25:48;96487.19;;;-4.22;69.96
47636;BME280;33364;50.766;15.338;2023-01-25T02:28:20;96482.84;;;-4.21;71.25
47636;BME280;33364;50.766;15.338;2023-01-25T02:30:47;96489.56;;;-4.19;71.16
47636;BME280;33364;50.766;15.338;2023-01-25T02:33:13;96485.59;;;-4.00;72.32
47636;BME280;33364;50.766;15.338;2023-01-25T02:35:48;96476.28;;;-3.92;71.84
47636;BME280;33364;50.766;15.338;2023-01-25T02:38:18;96472.06;;;-4.39;68.47
47636;BME280;33364;50.766;15.338;2023-01-25T02:40:48;96472.00;;;-4.86;69.75
47636;BME280;33364;50.766;15.338;2023-01-25T02:43:17;96473.63;;;-4.96;71.13
47636;BME280;33364;50.766;15.338;2023-01-25T02:45:45;96462.50;;;-4.99;71.00
47636;BME280;33364;50.766;15.338;2023-01-25T02:48:12;96459.09;;;-4.75;72.85
47636;BME280;33364;50.766;15.338;2023-01-25T02:50:38;96463.34;;;-4.63;70.14
47636;BME280;33364;50.766;15.338;2023-01-25T02:53:04;96456.47;;;-4.51;71.46
47636;BME280;33364;50.766;15.338;2023-01-25T02:55:29;96448.00;;;-4.77;70.13
47636;BME280;33364;50.766;15.338;2023-01-25T02:57:55;96446.22;;;-4.76;70.20
47636;BME280;33364;50.766;15.338;2023-01-25T03:00:21;96449.00;;;-4.91;68.86
47636;BME280;33364;50.766;15.338;2023-01-25T03:02:47;96452.56;;;-4.92;70.01
47636;BME280;33364;50.766;15.338;2023-01-25T03:05:12;96439.69;;;-5.18;70.01
47636;BME280;33364;50.766;15.338;2023-01-25T03:07:39;96445.41;;;-5.25;71.11
47636;BME280;33364;50.766;15.338;2023-01-25T03:10:04;96444.03;;;-5.42;70.41
47636;BME280;33364;50.766;15.338;2023-01-25T03:12:30;96433.25;;;-5.36;72.67
47636;BME280;33364;50.766;15.338;2023-01-25T03:14:56;96438.28;;;-5.35;72.74
47636;BME280;33364;50.766;15.338;2023-01-25T03:17:22;96438.31;;;-5.10;72.56
47636;BME280;33364;50.766;15.338;2023-01-25T03:19:49;96439.97;;;-5.09;72.45
47636;BME280;33364;50.766;15.338;2023-01-25T03:22:15;96427.94;;;-4.86;74.13
47636;BME280;33364;50.766;15.338;2023-01-25T03:24:40;96431.97;;;-4.82;71.84
47636;BME280;33364;50.766;15.338;2023-01-25T03:27:06;96429.94;;;-5.14;68.40
47636;BME280;33364;50.766;15.338;2023-01-25T03:29:35;96424.78;;;-5.51;69.54
47636;BME280;33364;50.766;15.338;2023-01-25T03:32:01;96423.78;;;-5.24;74.43
47636;BME280;33364;50.766;15.338;2023-01-25T03:34:27;96422.69;;;-4.98;74.00
47636;BME280;33364;50.766;15.338;2023-01-25T03:36:52;96423.34;;;-5.07;69.49
47636;BME280;33364;50.766;15.338;2023-01-25T03:39:18;96419.19;;;-5.82;69.99
47636;BME280;33364;50.766;15.338;2023-01-25T03:41:44;96418.88;;;-5.90;71.66
47636;BME280;33364;50.766;15.338;2023-01-25T03:44:10;96417.81;;;-5.75;73.57
47636;BME280;33364;50.766;15.338;2023-01-25T03:46:39;96412.09;;;-5.43;74.50
47636;BME280;33364;50.766;15.338;2023-01-25T03:49:06;96412.94;;;-5.42;71.09
47636;BME280;33364;50.766;15.338;2023-01-25T03:51:32;96407.59;;;-5.52;72.74
47636;BME280;33364;50.766;15.338;2023-01-25T03:53:58;96410.72;;;-5.60;72.03
47636;BME280;33364;50.766;15.338;2023-01-25T03:56:23;96410.09;;;-5.26;73.76
47636;BME280;33364;50.766;15.338;2023-01-25T03:58:49;96408.66;;;-5.06;73.16
47636;BME280;33364;50.766;15.338;2023-01-25T04:01:15;96407.69;;;-5.05;71.10
47636;BME280;33364;50.766;15.338;2023-01-25T04:03:41;96403.03;;;-5.00;71.69
47636;BME280;33364;50.766;15.338;2023-01-25T04:06:07;96392.88;;;-5.03;70.33
47636;BME280;33364;50.766;15.338;2023-01-25T04:08:33;96400.16;;;-5.08;70.60
47636;BME280;33364;50.766;15.338;2023-01-25T04:11:04;96394.03;;;-5.31;69.99
47636;BME280;33364;50.766;15.338;2023-01-25T04:13:32;96396.72;;;-5.33;70.67
47636;BME280;33364;50.766;15.338;2023-01-25T04:16:05;96402.28;;;-5.38;71.09
47636;BME280;33364;50.766;15.338;2023-01-25T04:18:32;96396.31;;;-5.27;71.14
47636;BME280;33364;50.766;15.338;2023-01-25T04:20:58;96395.38;;;-5.02;72.71
47636;BME280;33364;50.766;15.338;2023-01-25T04:23:25;96393.69;;;-5.03;70.16
47636;BME280;33364;50.766;15.338;2023-01-25T04:25:54;96392.03;;;-5.04;71.02
47636;BME280;33364;50.766;15.338;2023-01-25T04:28:21;96388.84;;;-5.07;69.77
47636;BME280;33364;50.766;15.338;2023-01-25T04:30:47;96394.56;;;-5.26;70.02
47636;BME280;33364;50.766;15.338;2023-01-25T04:33:13;96395.97;;;-5.46;69.59
47636;BME280;33364;50.766;15.338;2023-01-25T04:35:39;96394.75;;;-5.54;70.62
47636;BME280;33364;50.766;15.338;2023-01-25T04:38:05;96391.66;;;-5.35;70.85
47636;BME280;33364;50.766;15.338;2023-01-25T04:40:30;96388.97;;;-5.57;70.66
47636;BME280;33364;50.766;15.338;2023-01-25T04:42:56;96393.69;;;-5.51;70.02
47636;BME280;33364;50.766;15.338;2023-01-25T04:45:23;96393.47;;;-5.48;70.10
47636;BME280;33364;50.766;15.338;2023-01-25T04:47:55;96391.34;;;-5.54;69.71
47636;BME280;33364;50.766;15.338;2023-01-25T04:50:21;96395.34;;;-5.50;70.03
47636;BME280;33364;50.766;15.338;2023-01-25T04:52:47;96396.56;;;-5.43;71.10
47636;BME280;33364;50.766;15.338;2023-01-25T04:55:12;96387.44;;;-5.36;69.48
47636;BME280;33364;50.766;15.338;2023-01-25T04:57:38;96388.38;;;-5.37;68.91
47636;BME280;33364;50.766;15.338;2023-01-25T05:00:04;96383.66;;;-5.31;69.74
47636;BME280;33364;50.766;15.338;2023-01-25T05:02:31;96386.84;;;-5.39;71.01
47636;BME280;33364;50.766;15.338;2023-01-25T05:04:56;96388.44;;;-5.62;68.35
47636;BME280;33364;50.766;15.338;2023-01-25T05:07:22;96391.50;;;-5.68;70.63
47636;BME280;33364;50.766;15.338;2023-01-25T05:09:48;96392.97;;;-5.53;71.36
47636;BME280;33364;50.766;15.338;2023-01-25T05:12:14;96389.75;;;-5.44;72.06
47636;BME280;33364;50.766;15.338;2023-01-25T05:14:39;96384.03;;;-5.36;71.66
47636;BME280;33364;50.766;15.338;2023-01-25T05:17:06;96386.59;;;-5.60;71.29
47636;BME280;33364;50.766;15.338;2023-01-25T05:19:32;96381.09;;;-5.93;70.46
47636;BME280;33364;50.766;15.338;2023-01-25T05:21:59;96389.38;;;-5.87;71.69
47636;BME280;33364;50.766;15.338;2023-01-25T05:24:30;96387.13;;;-5.68;71.34
47636;BME280;33364;50.766;15.338;2023-01-25T05:26:56;96392.50;;;-5.58;71.08
47636;BME280;33364;50.766;15.338;2023-01-25T05:29:26;96392.94;;;-5.77;70.30
47636;BME280;33364;50.766;15.338;2023-01-25T05:31:52;96385.88;;;-5.62;74.03
47636;BME280;33364;50.766;15.338;2023-01-25T05:34:18;96381.00;;;-5.54;72.40
47636;BME280;33364;50.766;15.338;2023-01-25T05:36:44;96383.91;;;-5.59;71.58
47636;BME280;33364;50.766;15.338;2023-01-25T05:39:10;96376.47;;;-5.63;71.19
47636;BME280;33364;50.766;15.338;2023-01-25T05:41:36;96381.09;;;-5.56;72.61
47636;BME280;33364;50.766;15.338;2023-01-25T05:44:02;96374.63;;;-5.50;71.43
47636;BME280;33364;50.766;15.338;2023-01-25T05:46:28;96373.16;;;-5.65;69.89
47636;BME280;33364;50.766;15.338;2023-01-25T05:48:54;96373.84;;;-5.87;71.89
47636;BME280;33364;50.766;15.338;2023-01-25T05:51:20;96373.69;;;-5.73;71.61
47636;BME280;33364;50.766;15.338;2023-01-25T05:53:46;96377.59;;;-5.67;70.34
47636;BME280;33364;50.766;15.338;2023-01-25T05:56:12;96376.47;;;-6.00;69.27
47636;BME280;33364;50.766;15.338;2023-01-25T05:58:38;96380.00;;;-6.01;70.49
47636;BME280;33364;50.766;15.338;2023-01-25T06:01:05;96373.28;;;-6.04;70.09
47636;BME280;33364;50.766;15.338;2023-01-25T06:03:33;96381.16;;;-6.05;70.95
47636;BME280;33364;50.766;15.338;2023-01-25T06:06:01;96369.69;;;-6.27;71.39
47636;BME280;33364;50.766;15.338;2023-01-25T06:08:30;96373.41;;;-6.31;71.91
47636;BME280;33364;50.766;15.338;2023-01-25T06:10:57;96368.44;;;-6.34;71.82
47636;BME280;33364;50.766;15.338;2023-01-25T06:13:23;96375.16;;;-6.19;74.58
47636;BME280;33364;50.766;15.338;2023-01-25T06:15:56;96371.56;;;-5.92;72.35
47636;BME280;33364;50.766;15.338;2023-01-25T06:18:23;96370.09;;;-6.07;69.51
47636;BME280;33364;50.766;15.338;2023-01-25T06:20:50;96372.47;;;-6.04;71.60
47636;BME280;33364;50.766;15.338;2023-01-25T06:23:15;96370.44;;;-5.88;74.24
47636;BME280;33364;50.766;15.338;2023-01-25T06:25:43;96372.47;;;-6.17;70.07
47636;BME280;33364;50.766;15.338;2023-01-25T06:28:09;96374.53;;;-6.10;71.73
47636;BME280;33364;50.766;15.338;2023-01-25T06:30:35;96384.72;;;-5.95;72.63
47636;BME280;33364;50.766;15.338;2023-01-25T06:33:00;96375.09;;;-5.93;73.53
47636;BME280;33364;50.766;15.338;2023-01-25T06:35:27;96374.72;;;-5.76;74.46
47636;BME280;33364;50.766;15.338;2023-01-25T06:37:57;96375.25;;;-5.46;74.52
47636;BME280;33364;50.766;15.338;2023-01-25T06:40:24;96379.06;;;-5.39;72.95
47636;BME280;33364;50.766;15.338;2023-01-25T06:42:50;96381.75;;;-5.41;70.40
47636;BME280;33364;50.766;15.338;2023-01-25T06:45:16;96382.69;;;-5.42;71.07
47636;BME280;33364;50.766;15.338;2023-01-25T06:47:42;96383.69;;;-5.56;69.78
47636;BME280;33364;50.766;15.338;2023-01-25T06:50:09;96378.16;;;-5.51;71.53
47636;BME280;33364;50.766;15.338;2023-01-25T06:52:35;96382.41;;;-5.50;71.23
47636;BME280;33364;50.766;15.338;2023-01-25T06:55:02;96380.38;;;-5.33;71.44
47636;BME280;33364;50.766;15.338;2023-01-25T06:57:28;96374.69;;;-5.14;73.49
47636;BME280;33364;50.766;15.338;2023-01-25T06:59:54;96377.44;;;-5.05;72.26
47636;BME280;33364;50.766;15.338;2023-01-25T07:02:20;96371.16;;;-5.13;70.98
47636;BME280;33364;50.766;15.338;2023-01-25T07:04:46;96377.25;;;-5.26;70.61
47636;BME280;33364;50.766;15.338;2023-01-25T07:07:12;96370.16;;;-5.24;70.37
47636;BME280;33364;50.766;15.338;2023-01-25T07:09:38;96371.25;;;-5.26;71.73
47636;BME280;33364;50.766;15.338;2023-01-25T07:12:04;96363.16;;;-5.35;70.79
47636;BME280;33364;50.766;15.338;2023-01-25T07:14:30;96374.91;;;-5.18;72.91
47636;BME280;33364;50.766;15.338;2023-01-25T07:16:56;96362.13;;;-5.08;73.58
47636;BME280;33364;50.766;15.338;2023-01-25T07:19:22;96370.81;;;-5.09;73.16
47636;BME280;33364;50.766;15.338;2023-01-25T07:21:48;96362.88;;;-5.19;71.64
47636;BME280;33364;50.766;15.338;2023-01-25T07:24:16;96367.28;;;-5.08;70.81
47636;BME280;33364;50.766;15.338;2023-01-25T07:26:42;96364.09;;;-5.11;69.40
47636;BME280;33364;50.766;15.338;2023-01-25T07:29:14;96365.38;;;-5.17;71.17
47636;BME280;33364;50.766;15.338;2023-01-25T07:31:41;96364.25;;;-5.02;69.78
47636;BME280;33364;50.766;15.338;2023-01-25T07:34:09;96361.31;;;-4.97;72.33
47636;BME280;33364;50.766;15.338;2023-01-25T07:36:36;96362.63;;;-4.91;70.98
47636;BME280;33364;50.766;15.338;2023-01-25T07:39:02;96356.53;;;-4.79;70.59
47636;BME280;33364;50.766;15.338;2023-01-25T07:41:27;96359.06;;;-5.02;69.08
47636;BME280;33364;50.766;15.338;2023-01-25T07:43:54;96350.81;;;-4.95;71.44
47636;BME280;33364;50.766;15.338;2023-01-25T07:46:20;96348.75;;;-4.79;70.40
47636;BME280;33364;50.766;15.338;2023-01-25T07:48:48;96342.81;;;-4.92;68.76
47636;BME280;33364;50.766;15.338;2023-01-25T07:51:15;96342.16;;;-5.19;67.67
47636;BME280;33364;50.766;15.338;2023-01-25T07:53:58;96339.38;;;-5.40;71.17
47636;BME280;33364;50.766;15.338;2023-01-25T07:56:26;96340.97;;;-5.50;68.67
47636;BME280;33364;50.766;15.338;2023-01-25T07:58:54;96337.03;;;-5.67;69.05
47636;BME280;33364;50.766;15.338;2023-01-25T08:01:21;96333.41;;;-5.77;69.46
47636;BME280;33364;50.766;15.338;2023-01-25T08:03:47;96325.25;;;-5.84;69.91
47636;BME280;33364;50.766;15.338;2023-01-25T08:06:14;96326.31;;;-5.62;71.43
47636;BME280;33364;50.766;15.338;2023-01-25T08:08:44;96321.19;;;-5.51;70.26
47636;BME280;33364;50.766;15.338;2023-01-25T08:11:13;96316.91;;;-5.63;68.97
47636;BME280;33364;50.766;15.338;2023-01-25T08:13:41;96320.19;;;-5.61;69.05
47636;BME280;33364;50.766;15.338;2023-01-25T08:16:12;96316.69;;;-5.60;69.78
47636;BME280;33364;50.766;15.338;2023-01-25T08:18:38;96319.06;;;-5.57;69.96
47636;BME280;33364;50.766;15.338;2023-01-25T08:21:04;96311.59;;;-5.38;68.96
47636;BME280;33364;50.766;15.338;2023-01-25T08:23:29;96308.75;;;-5.35;68.03
47636;BME280;33364;50.766;15.338;2023-01-25T08:26:00;96311.50;;;-5.25;67.94
47636;BME280;33364;50.766;15.338;2023-01-25T08:28:26;96302.97;;;-5.03;69.72
47636;BME280;33364;50.766;15.338;2023-01-25T08:30:52;96293.13;;;-4.86;67.90
47636;BME280;33364;50.766;15.338;2023-01-25T08:33:17;96299.22;;;-4.87;68.30
47636;BME280;33364;50.766;15.338;2023-01-25T08:35:53;96298.56;;;-4.55;67.12
47636;BME280;33364;50.766;15.338;2023-01-25T08:38:20;96294.31;;;-4.22;65.72
47636;BME280;33364;50.766;15.338;2023-01-25T08:40:45;96293.31;;;-3.88;66.45
47636;BME280;33364;50.766;15.338;2023-01-25T08:43:11;96294.16;;;-3.87;64.08
47636;BME280;33364;50.766;15.338;2023-01-25T08:45:37;96288.69;;;-3.73;65.42
47636;BME280;33364;50.766;15.338;2023-01-25T08:48:03;96281.53;;;-3.48;63.65
47636;BME280;33364;50.766;15.338;2023-01-25T08:50:29;96279.97;;;-3.51;63.91
47636;BME280;33364;50.766;15.338;2023-01-25T08:52:54;96272.59;;;-3.34;64.31
47636;BME280;33364;50.766;15.338;2023-01-25T08:55:20;96277.03;;;-3.25;62.45
47636;BME280;33364;50.766;15.338;2023-01-25T08:57:45;96274.81;;;-3.08;63.64
47636;BME280;33364;50.766;15.338;2023-01-25T09:00:12;96273.34;;;-2.80;62.45
47636;BME280;33364;50.766;15.338;2023-01-25T09:02:38;96278.22;;;-2.35;61.78
47636;BME280;33364;50.766;15.338;2023-01-25T09:05:04;96272.72;;;-2.01;61.47
47636;BME280;33364;50.766;15.338;2023-01-25T09:07:30;96274.81;;;-1.46;60.44
47636;BME280;33364;50.766;15.338;2023-01-25T09:09:57;96274.28;;;-1.01;59.49
47636;BME280;33364;50.766;15.338;2023-01-25T09:12:23;96265.03;;;-0.38;60.69
47636;BME280;33364;50.766;15.338;2023-01-25T09:14:49;96265.72;;;-0.08;58.05
47636;BME280;33364;50.766;15.338;2023-01-25T09:17:15;96273.34;;;0.49;55.74
47636;BME280;33364;50.766;15.338;2023-01-25T09:19:40;96275.97;;;0.85;54.65
47636;BME280;33364;50.766;15.338;2023-01-25T09:22:07;96283.13;;;1.01;54.67
47636;BME280;33364;50.766;15.338;2023-01-25T09:24:33;96277.50;;;1.14;55.73
47636;BME280;33364;50.766;15.338;2023-01-25T09:26:59;96267.03;;;1.14;54.20
47636;BME280;33364;50.766;15.338;2023-01-25T09:29:25;96275.09;;;0.76;57.02
47636;BME280;33364;50.766;15.338;2023-01-25T09:31:50;96273.06;;;0.70;57.86
47636;BME280;33364;50.766;15.338;2023-01-25T09:34:17;96272.66;;;0.29;55.13
47636;BME280;33364;50.766;15.338;2023-01-25T09:36:42;96271.00;;;0.28;60.37
47636;BME280;33364;50.766;15.338;2023-01-25T09:39:10;96266.16;;;0.15;57.79
47636;BME280;33364;50.766;15.338;2023-01-25T09:46:54;96261.84;;;-0.04;60.80
47636;BME280;33364;50.766;15.338;2023-01-25T09:49:45;96251.78;;;0.01;60.53
47636;BME280;33364;50.766;15.338;2023-01-25T09:55:12;96251.69;;;-0.07;61.01
47636;BME280;33364;50.766;15.338;2023-01-25T09:57:38;96251.06;;;0.09;60.08
47636;BME280;33364;50.766;15.338;2023-01-25T10:00:15;96246.81;;;0.26;60.13
47636;BME280;33364;50.766;15.338;2023-01-25T10:02:57;96229.38;;;0.62;60.00
47636;BME280;33364;50.766;15.338;2023-01-25T10:05:28;96240.41;;;0.74;60.18
47636;BME280;33364;50.766;15.338;2023-01-25T10:08:21;96230.88;;;0.91;57.91
47636;BME280;33364;50.766;15.338;2023-01-25T10:10:57;96222.06;;;1.18;57.01
47636;BME280;33364;50.766;15.338;2023-01-25T10:13:24;96227.72;;;1.32;57.09
47636;BME280;33364;50.766;15.338;2023-01-25T10:15:56;96221.75;;;1.48;57.82
47636;BME280;33364;50.766;15.338;2023-01-25T10:20:58;96227.59;;;1.41;56.37
47636;BME280;33364;50.766;15.338;2023-01-25T10:26:18;96216.25;;;1.59;58.12
47636;BME280;33364;50.766;15.338;2023-01-25T10:31:23;96210.28;;;1.91;56.81
47636;BME280;33364;50.766;15.338;2023-01-25T10:33:54;96205.75;;;2.01;57.62
47636;BME280;33364;50.766;15.338;2023-01-25T10:36:26;96203.97;;;2.18;54.88
47636;BME280;33364;50.766;15.338;2023-01-25T10:38:54;96202.84;;;2.21;55.14
47636;BME280;33364;50.766;15.338;2023-01-25T10:41:26;96205.78;;;2.18;56.65
47636;BME280;33364;50.766;15.338;2023-01-25T10:43:54;96201.72;;;2.56;56.08
47636;BME280;33364;50.766;15.338;2023-01-25T10:46:40;96203.69;;;2.96;53.38
47636;BME280;33364;50.766;15.338;2023-01-25T10:52:20;96192.34;;;3.20;54.86
47636;BME280;33364;50.766;15.338;2023-01-25T10:54:48;96191.78;;;3.49;52.84
47636;BME280;33364;50.766;15.338;2023-01-25T10:57:18;96195.28;;;3.73;52.11
47636;BME280;33364;50.766;15.338;2023-01-25T10:59:45;96188.97;;;3.90;52.30
47636;BME280;33364;50.766;15.338;2023-01-25T11:02:47;96179.00;;;4.40;50.36
47636;BME280;33364;50.766;15.338;2023-01-25T11:05:36;96168.31;;;4.65;50.11
47636;BME280;33364;50.766;15.338;2023-01-25T11:10:46;96163.56;;;5.13;48.88
47636;BME280;33364;50.766;15.338;2023-01-25T11:15:38;96149.66;;;4.51;50.27
47636;BME280;33364;50.766;15.338;2023-01-25T11:18:06;96148.25;;;4.17;53.22
47636;BME280;33364;50.766;15.338;2023-01-25T11:20:36;96136.50;;;4.51;51.22
47636;BME280;33364;50.766;15.338;2023-01-25T11:23:02;96132.16;;;4.35;52.04
47636;BME280;33364;50.766;15.338;2023-01-25T11:25:29;96133.38;;;4.71;52.49
47636;BME280;33364;50.766;15.338;2023-01-25T11:28:22;96124.22;;;4.82;50.00
47636;BME280;33364;50.766;15.338;2023-01-25T11:30:51;96116.13;;;4.83;50.63
47636;BME280;33364;50.766;15.338;2023-01-25T11:33:19;96115.44;;;5.19;49.49
47636;BME280;33364;50.766;15.338;2023-01-25T11:38:31;96095.53;;;5.46;48.06
47636;BME280;33364;50.766;15.338;2023-01-25T11:41:22;96098.19;;;5.83;48.18
47636;BME280;33364;50.766;15.338;2023-01-25T11:46:58;96085.28;;;5.07;49.15
47636;BME280;33364;50.766;15.338;2023-01-25T11:55:02;96060.81;;;5.28;50.21
47636;BME280;33364;50.766;15.338;2023-01-25T12:00:45;96063.38;;;5.73;49.90
47636;BME280;33364;50.766;15.338;2023-01-25T12:09:28;96045.38;;;5.40;50.01
47636;BME280;33364;50.766;15.338;2023-01-25T12:17:14;96030.31;;;5.19;51.30
47636;BME280;33364;50.766;15.338;2023-01-25T12:22:38;96019.69;;;4.82;50.72
47636;BME280;33364;50.766;15.338;2023-01-25T12:30:55;96006.16;;;4.70;50.85
47636;BME280;33364;50.766;15.338;2023-01-25T12:39:02;95983.91;;;5.03;51.42
47636;BME280;33364;50.766;15.338;2023-01-25T12:41:38;95978.94;;;4.48;52.22
47636;BME280;33364;50.766;15.338;2023-01-25T12:44:07;95968.41;;;4.48;51.61
47636;BME280;33364;50.766;15.338;2023-01-25T12:46:44;95971.50;;;4.52;53.29
47636;BME280;33364;50.766;15.338;2023-01-25T12:49:22;95969.94;;;4.57;51.17
47636;BME280;33364;50.766;15.338;2023-01-25T12:51:51;95960.53;;;4.48;51.96
47636;BME280;33364;50.766;15.338;2023-01-25T12:54:32;95962.78;;;4.81;53.16
47636;BME280;33364;50.766;15.338;2023-01-25T12:57:16;95951.06;;;4.99;50.80
47636;BME280;33364;50.766;15.338;2023-01-25T13:05:28;95950.03;;;5.00;52.71
47636;BME280;33364;50.766;15.338;2023-01-25T13:08:10;95955.94;;;5.02;51.96
47636;BME280;33364;50.766;15.338;2023-01-25T13:10:43;95942.44;;;4.75;51.73
47636;BME280;33364;50.766;15.338;2023-01-25T13:13:26;95943.34;;;4.97;51.85
47636;BME280;33364;50.766;15.338;2023-01-25T13:15:53;95937.00;;;3.79;53.67
47636;BME280;33364;50.766;15.338;2023-01-25T13:21:00;95937.44;;;4.06;54.82
47636;BME280;33364;50.766;15.338;2023-01-25T13:23:32;95932.66;;;3.71;54.73
47636;BME280;33364;50.766;15.338;2023-01-25T13:28:51;95931.94;;;3.54;56.37
47636;BME280;33364;50.766;15.338;2023-01-25T13:34:11;95927.25;;;3.18;58.03
47636;BME280;33364;50.766;15.338;2023-01-25T13:44:51;95924.22;;;2.27;60.25
47636;BME280;33364;50.766;15.338;2023-01-25T13:47:32;95922.31;;;2.05;62.62
47636;BME280;33364;50.766;15.338;2023-01-25T13:52:57;95928.38;;;1.97;63.09
47636;BME280;33364;50.766;15.338;2023-01-25T13:55:23;95929.38;;;1.88;64.31
47636;BME280;33364;50.766;15.338;2023-01-25T13:57:49;95922.69;;;1.69;63.51
47636;BME280;33364;50.766;15.338;2023-01-25T14:00:16;95916.13;;;1.64;63.80
47636;BME280;33364;50.766;15.338;2023-01-25T14:02:44;95911.66;;;0.91;65.09
47636;BME280;33364;50.766;15.338;2023-01-25T14:05:22;95915.47;;;1.21;66.78
47636;BME280;33364;50.766;15.338;2023-01-25T14:07:51;95910.91;;;1.32;65.45
47636;BME280;33364;50.766;15.338;2023-01-25T14:10:19;95908.44;;;1.22;64.90
47636;BME280;33364;50.766;15.338;2023-01-25T14:12:49;95904.84;;;1.31;66.35
47636;BME280;33364;50.766;15.338;2023-01-25T14:20:35;95902.66;;;0.85;66.55
47636;BME280;33364;50.766;15.338;2023-01-25T14:23:00;95905.91;;;0.79;66.71
47636;BME280;33364;50.766;15.338;2023-01-25T14:25:26;95904.25;;;0.27;68.42
47636;BME280;33364;50.766;15.338;2023-01-25T14:27:54;95911.03;;;0.46;68.35
47636;BME280;33364;50.766;15.338;2023-01-25T14:32:54;95895.06;;;0.58;68.04
47636;BME280;33364;50.766;15.338;2023-01-25T14:35:30;95893.75;;;0.62;67.67
47636;BME280;33364;50.766;15.338;2023-01-25T14:37:56;95884.00;;;0.72;67.98
47636;BME280;33364;50.766;15.338;2023-01-25T14:40:24;95885.16;;;0.35;69.01
47636;BME280;33364;50.766;15.338;2023-01-25T14:42:52;95889.97;;;0.48;69.33
47636;BME280;33364;50.766;15.338;2023-01-25T14:45:20;95883.91;;;0.55;68.55
47636;BME280;33364;50.766;15.338;2023-01-25T14:47:51;95880.81;;;0.52;69.19